createdAt,value
2024-02-08T00:02:18.802Z,98162.59
2024-02-08T00:04:51.721Z,98158.88
2024-02-08T00:07:23.593Z,98161.03
2024-02-08T00:09:56.342Z,98161.03
2024-02-08T00:12:28.076Z,98160.81
2024-02-08T00:14:59.774Z,98158.78
2024-02-08T00:17:33.569Z,98156.25
2024-02-08T00:20:07.664Z,98158.75
2024-02-08T00:22:52.527Z,98156.69
2024-02-08T00:25:27.278Z,98159.31
2024-02-08T00:27:59.051Z,98147.63
2024-02-08T00:30:30.866Z,98151.03
2024-02-08T00:33:03.530Z,98154.38
2024-02-08T00:35:35.642Z,98157.41
2024-02-08T00:38:08.287Z,98159.88
2024-02-08T00:40:40.073Z,98150.13
2024-02-08T00:43:11.770Z,98152.31
2024-02-08T00:45:43.577Z,98151.88
2024-02-08T00:48:15.458Z,98143.47
2024-02-08T00:50:47.351Z,98141.53
2024-02-08T00:53:20.471Z,98141.22
2024-02-08T00:55:52.275Z,98137.28
2024-02-08T00:58:25.830Z,98141.53
2024-02-08T01:00:57.588Z,98132.94
2024-02-08T01:03:29.411Z,98133.16
2024-02-08T01:06:03.561Z,98133.97
2024-02-08T01:08:35.406Z,98125.06
2024-02-08T01:11:07.299Z,98123.28
2024-02-08T01:13:42.478Z,98114.34
2024-02-08T01:16:15.574Z,98123.09
2024-02-08T01:18:47.529Z,98123.09
2024-02-08T01:21:21.287Z,98131.25
2024-02-08T01:23:53.430Z,98115.22
2024-02-08T01:26:25.837Z,98115.06
2024-02-08T01:28:57.710Z,98114.91
2024-02-08T01:31:32.147Z,98108.22
2024-02-08T01:34:06.539Z,98114.41
2024-02-08T01:36:41.674Z,98114.09
2024-02-08T01:39:14.491Z,98116.56
2024-02-08T01:41:46.330Z,98109.94
2024-02-08T01:44:18.156Z,98105.94
2024-02-08T01:46:57.707Z,98101.78
2024-02-08T01:49:30.981Z,98105.19
2024-02-08T01:52:05.136Z,98096.56
2024-02-08T01:54:42.961Z,98083.00
2024-02-08T01:57:15.641Z,98082.03
2024-02-08T01:59:54.325Z,98075.59
2024-02-08T02:02:28.551Z,98075.13
2024-02-08T02:05:00.361Z,98076.78
2024-02-08T02:07:33.337Z,98070.75
2024-02-08T02:10:05.437Z,98065.22
2024-02-08T02:12:37.320Z,98059.72
2024-02-08T02:15:09.270Z,98053.00
2024-02-08T02:17:45.992Z,98053.00
2024-02-08T02:20:20.352Z,98045.72
2024-02-08T02:22:52.415Z,98044.31
2024-02-08T02:25:26.881Z,98043.88
2024-02-08T02:27:59.930Z,98051.09
2024-02-08T02:30:32.318Z,98043.63
2024-02-08T02:33:07.603Z,98046.75
2024-02-08T02:35:40.984Z,98043.03
2024-02-08T02:38:15.454Z,98050.25
2024-02-08T02:40:47.963Z,98043.38
2024-02-08T02:43:27.696Z,98037.88
2024-02-08T02:45:59.757Z,98024.84
2024-02-08T02:48:33.139Z,98025.50
2024-02-08T02:51:05.366Z,98026.31
2024-02-08T02:53:37.346Z,98017.91
2024-02-08T02:56:09.826Z,98016.25
2024-02-08T02:58:41.669Z,98013.00
2024-02-08T03:01:13.461Z,98008.44
2024-02-08T03:03:48.552Z,98010.56
2024-02-08T03:06:20.373Z,98011.94
2024-02-08T03:08:52.205Z,98021.06
2024-02-08T03:11:29.242Z,98003.66
2024-02-08T03:14:06.012Z,98012.13
2024-02-08T03:16:42.419Z,98009.53
2024-02-08T03:19:15.462Z,98012.97
2024-02-08T03:21:47.542Z,98020.59
2024-02-08T03:24:20.956Z,98014.56
2024-02-08T03:26:53.146Z,98013.59
2024-02-08T03:29:27.458Z,98011.00
2024-02-08T03:31:59.433Z,98018.00
2024-02-08T03:34:36.852Z,98012.63
2024-02-08T03:37:18.106Z,98006.47
2024-02-08T03:39:50.681Z,98003.84
2024-02-08T03:42:23.398Z,97995.53
2024-02-08T03:44:55.084Z,97996.63
2024-02-08T03:47:30.647Z,97992.53
2024-02-08T03:50:02.840Z,97995.31
2024-02-08T03:52:38.724Z,97996.63
2024-02-08T03:55:14.759Z,97992.75
2024-02-08T03:57:50.679Z,98009.06
2024-02-08T04:00:31.615Z,97989.66
2024-02-08T04:03:07.704Z,97993.47
2024-02-08T04:05:51.625Z,97991.84
2024-02-08T04:08:44.363Z,97982.56
2024-02-08T04:11:34.650Z,97971.94
2024-02-08T04:14:25.085Z,97972.22
2024-02-08T04:17:18.620Z,97968.50
2024-02-08T04:20:09.248Z,97958.38
2024-02-08T04:23:00.038Z,97966.66
2024-02-08T04:25:50.411Z,97965.03
2024-02-08T04:28:40.938Z,97959.19
2024-02-08T04:31:35.688Z,97961.81
2024-02-08T04:34:27.952Z,97951.75
2024-02-08T04:37:18.737Z,97943.75
2024-02-08T04:40:09.254Z,97947.53
2024-02-08T04:42:59.574Z,97957.31
2024-02-08T04:45:49.996Z,97953.09
2024-02-08T04:48:40.604Z,97954.53
2024-02-08T04:51:33.968Z,97938.16
2024-02-08T04:54:10.581Z,97958.97
2024-02-08T04:56:42.393Z,97946.53
2024-02-08T04:59:23.662Z,97956.00
2024-02-08T05:01:56.012Z,97950.81
2024-02-08T05:04:33.281Z,97956.09
2024-02-08T05:07:07.117Z,97958.56
2024-02-08T05:09:41.228Z,97960.97
2024-02-08T05:12:14.149Z,97965.69
2024-02-08T05:14:49.159Z,97962.81
2024-02-08T05:17:23.502Z,97963.44
2024-02-08T05:19:56.200Z,97960.81
2024-02-08T05:22:27.994Z,97960.59
2024-02-08T05:24:59.935Z,97962.34
2024-02-08T05:27:32.242Z,97953.03
2024-02-08T05:30:04.668Z,97946.34
2024-02-08T05:32:40.646Z,97947.41
2024-02-08T05:35:20.677Z,97944.81
2024-02-08T05:37:55.028Z,97947.63
2024-02-08T05:40:27.168Z,97954.09
2024-02-08T05:43:00.263Z,97951.06
2024-02-08T05:45:34.535Z,97945.38
2024-02-08T05:48:09.482Z,97950.78
2024-02-08T05:50:45.793Z,97950.19
2024-02-08T05:53:19.343Z,97946.94
2024-02-08T05:55:53.804Z,97951.81
2024-02-08T05:58:28.470Z,97959.31
2024-02-08T06:01:06.945Z,97953.94
2024-02-08T06:03:39.247Z,97950.81
2024-02-08T06:06:18.291Z,97953.41
2024-02-08T06:08:57.508Z,97949.16
2024-02-08T06:11:31.686Z,97953.34
2024-02-08T06:14:13.874Z,97962.81
2024-02-08T06:16:48.382Z,97951.75
2024-02-08T06:19:23.143Z,97952.72
2024-02-08T06:21:59.290Z,97952.53
2024-02-08T06:24:33.881Z,97955.38
2024-02-08T06:27:29.564Z,97950.91
2024-02-08T06:30:09.441Z,97946.53
2024-02-08T06:32:46.900Z,97944.09
2024-02-08T06:35:21.908Z,97945.56
2024-02-08T06:38:06.678Z,97945.41
2024-02-08T06:40:41.813Z,97949.19
2024-02-08T06:43:23.618Z,97941.06
2024-02-08T06:45:59.032Z,97943.63
2024-02-08T06:48:49.525Z,97949.19
2024-02-08T06:51:42.197Z,97942.69
2024-02-08T06:54:32.708Z,97941.88
2024-02-08T06:57:23.597Z,97929.88
2024-02-08T07:00:13.968Z,97926.72
2024-02-08T07:03:04.101Z,97934.56
2024-02-08T07:05:54.394Z,97935.66
2024-02-08T07:08:46.436Z,97933.81
2024-02-08T07:11:37.152Z,97934.88
2024-02-08T07:14:27.591Z,97924.94
2024-02-08T07:17:17.943Z,97928.22
2024-02-08T07:20:09.195Z,97924.16
2024-02-08T07:22:59.533Z,97927.63
2024-02-08T07:25:49.860Z,97927.69
2024-02-08T07:28:40.200Z,97923.47
2024-02-08T07:31:30.477Z,97931.66
2024-02-08T07:34:20.869Z,97936.41
2024-02-08T07:37:14.877Z,97931.81
2024-02-08T07:39:55.398Z,97940.66
2024-02-08T07:42:45.465Z,97939.00
2024-02-08T07:45:17.247Z,97939.69
2024-02-08T07:47:58.932Z,97930.56
2024-02-08T07:50:37.231Z,97929.44
2024-02-08T07:53:35.476Z,97920.00
2024-02-08T07:56:30.527Z,97921.53
2024-02-08T07:59:05.870Z,97924.63
2024-02-08T08:01:41.672Z,97922.38
2024-02-08T08:04:29.357Z,97916.06
2024-02-08T08:07:02.273Z,97914.13
2024-02-08T08:09:40.278Z,97923.13
2024-02-08T08:12:12.013Z,97933.09
2024-02-08T08:14:43.702Z,97933.59
2024-02-08T08:17:32.775Z,97936.22
2024-02-08T08:20:17.928Z,97924.75
2024-02-08T08:22:56.310Z,97921.50
2024-02-08T08:25:31.305Z,97922.94
2024-02-08T08:28:31.581Z,97931.09
2024-02-08T08:31:24.117Z,97933.06
2024-02-08T08:34:02.432Z,97936.03
2024-02-08T08:36:36.238Z,97933.38
2024-02-08T08:39:34.339Z,97930.59
2024-02-08T08:42:07.118Z,97917.53
2024-02-08T08:44:39.661Z,97916.22
2024-02-08T08:47:12.578Z,97917.47
2024-02-08T08:49:45.411Z,97916.03
2024-02-08T08:52:25.303Z,97921.69
2024-02-08T08:55:18.871Z,97916.69
2024-02-08T08:58:01.606Z,97911.91
2024-02-08T09:00:34.115Z,97913.72
2024-02-08T09:03:06.307Z,97915.81
2024-02-08T09:05:38.461Z,97907.09
2024-02-08T09:08:11.959Z,97906.59
2024-02-08T09:10:43.924Z,97918.72
2024-02-08T09:13:19.975Z,97915.66
2024-02-08T09:16:20.395Z,97923.84
2024-02-08T09:19:04.128Z,97929.09
2024-02-08T09:21:37.571Z,97917.81
2024-02-08T09:24:19.133Z,97919.63
2024-02-08T09:26:53.517Z,97925.38
2024-02-08T09:29:29.834Z,97924.91
2024-02-08T09:32:25.231Z,97918.88
2024-02-08T09:35:00.068Z,97909.44
2024-02-08T09:37:33.958Z,97898.84
2024-02-08T09:40:19.640Z,97928.75
2024-02-08T09:42:58.668Z,97930.72
2024-02-08T09:45:33.439Z,97926.59
2024-02-08T09:48:16.871Z,97917.91
2024-02-08T09:50:51.596Z,97942.44
2024-02-08T09:53:31.378Z,97947.81
2024-02-08T09:56:27.736Z,97952.44
2024-02-08T09:59:10.511Z,97936.81
2024-02-08T10:01:46.971Z,97931.38
2024-02-08T10:04:26.451Z,97932.66
2024-02-08T10:07:04.547Z,97925.25
2024-02-08T10:09:42.059Z,97918.72
2024-02-08T10:12:21.931Z,97918.50
2024-02-08T10:15:00.904Z,97917.22
2024-02-08T10:17:43.422Z,97925.69
2024-02-08T10:20:22.514Z,97928.00
2024-02-08T10:23:10.482Z,97919.31
2024-02-08T10:26:02.009Z,97919.53
2024-02-08T10:28:34.302Z,97921.81
2024-02-08T10:31:07.864Z,97916.63
2024-02-08T10:33:40.798Z,97918.59
2024-02-08T10:36:16.978Z,97913.50
2024-02-08T10:38:59.104Z,97903.47
2024-02-08T10:41:55.663Z,97901.97
2024-02-08T10:44:31.458Z,97901.06
2024-02-08T10:47:11.149Z,97896.78
2024-02-08T10:49:44.410Z,97892.88
2024-02-08T10:52:22.736Z,97894.72
2024-02-08T10:54:57.882Z,97888.03
2024-02-08T10:57:39.045Z,97886.53
2024-02-08T11:00:33.696Z,97879.56
2024-02-08T11:03:16.148Z,97875.25
2024-02-08T11:06:02.108Z,97870.25
2024-02-08T11:08:38.216Z,97865.09
2024-02-08T11:11:13.606Z,97872.97
2024-02-08T11:13:47.197Z,97872.78
2024-02-08T11:16:25.416Z,97856.44
2024-02-08T11:18:59.011Z,97857.38
2024-02-08T11:21:45.217Z,97849.34
2024-02-08T11:24:30.362Z,97853.88
2024-02-08T11:27:04.008Z,97850.91
2024-02-08T11:29:48.984Z,97857.28
2024-02-08T11:32:23.792Z,97856.19
2024-02-08T11:35:02.093Z,97849.88
2024-02-08T11:37:39.756Z,97851.00
2024-02-08T11:40:13.930Z,97836.41
2024-02-08T11:42:46.719Z,97837.69
2024-02-08T11:45:23.540Z,97828.00
2024-02-08T11:47:59.615Z,97824.84
2024-02-08T11:50:37.705Z,97816.25
2024-02-08T11:53:10.905Z,97815.44
2024-02-08T11:55:46.832Z,97808.13
2024-02-08T11:58:23.166Z,97804.69
2024-02-08T12:01:00.137Z,97803.59
2024-02-08T12:03:35.409Z,97796.44
2024-02-08T12:06:07.643Z,97787.31
2024-02-08T12:08:43.382Z,97796.34
2024-02-08T12:11:21.480Z,97785.25
2024-02-08T12:13:59.080Z,97780.44
2024-02-08T12:16:40.182Z,97783.50
2024-02-08T12:19:16.794Z,97778.00
2024-02-08T12:22:05.560Z,97771.75
2024-02-08T12:24:37.879Z,97765.16
2024-02-08T12:27:16.545Z,97762.97
2024-02-08T12:29:52.107Z,97753.31
2024-02-08T12:32:31.805Z,97756.69
2024-02-08T12:35:14.938Z,97749.53
2024-02-08T12:37:50.023Z,97754.25
2024-02-08T12:40:22.195Z,97741.59
2024-02-08T12:42:55.205Z,97743.31
2024-02-08T12:45:30.452Z,97740.69
2024-02-08T12:48:06.089Z,97730.28
2024-02-08T12:50:40.146Z,97728.91
2024-02-08T12:53:14.588Z,97726.28
2024-02-08T12:55:48.390Z,97722.94
2024-02-08T12:58:20.322Z,97730.63
2024-02-08T13:01:05.829Z,97725.03
2024-02-08T13:03:38.526Z,97722.50
2024-02-08T13:06:15.618Z,97719.13
2024-02-08T13:08:47.732Z,97716.50
2024-02-08T13:11:25.346Z,97717.31
2024-02-08T13:14:06.099Z,97713.47
2024-02-08T13:16:37.873Z,97720.50
2024-02-08T13:19:15.241Z,97725.13
2024-02-08T13:21:47.206Z,97719.06
2024-02-08T13:24:20.163Z,97703.13
2024-02-08T13:26:51.872Z,97696.47
2024-02-08T13:29:27.618Z,97696.28
2024-02-08T13:32:00.275Z,97694.84
2024-02-08T13:34:35.067Z,97685.00
2024-02-08T13:37:07.002Z,97685.16
2024-02-08T13:39:39.084Z,97669.53
2024-02-08T13:42:12.318Z,97674.41
2024-02-08T13:44:45.688Z,97662.13
2024-02-08T13:47:22.373Z,97657.53
2024-02-08T13:50:00.619Z,97646.31
2024-02-08T13:52:32.375Z,97652.44
2024-02-08T13:55:08.881Z,97651.34
2024-02-08T13:57:41.368Z,97645.63
2024-02-08T14:00:22.078Z,97637.81
2024-02-08T14:02:58.469Z,97633.41
2024-02-08T14:05:38.154Z,97641.44
2024-02-08T14:08:11.241Z,97641.25
2024-02-08T14:10:44.886Z,97639.63
2024-02-08T14:13:20.567Z,97634.22
2024-02-08T14:15:57.109Z,97635.59
2024-02-08T14:18:39.096Z,97629.63
2024-02-08T14:21:20.933Z,97628.00
2024-02-08T14:23:59.627Z,97617.97
2024-02-08T14:26:34.997Z,97611.91
2024-02-08T14:29:07.789Z,97623.38
2024-02-08T14:31:41.243Z,97624.31
2024-02-08T14:34:15.720Z,97627.31
2024-02-08T14:36:50.366Z,97622.50
2024-02-08T14:39:34.083Z,97614.72
2024-02-08T14:42:13.966Z,97613.91
2024-02-08T14:44:51.539Z,97616.63
2024-02-08T14:47:26.332Z,97612.84
2024-02-08T14:50:02.463Z,97610.94
2024-02-08T14:52:45.470Z,97614.13
2024-02-08T14:55:24.018Z,97610.75
2024-02-08T14:58:00.210Z,97607.84
2024-02-08T15:00:32.694Z,97606.09
2024-02-08T15:03:10.202Z,97601.28
2024-02-08T15:06:01.042Z,97603.09
2024-02-08T15:08:47.320Z,97592.81
2024-02-08T15:11:40.015Z,97585.94
2024-02-08T15:14:18.065Z,97570.38
2024-02-08T15:16:49.813Z,97577.00
2024-02-08T15:19:27.474Z,97564.25
2024-02-08T15:22:19.945Z,97562.81
2024-02-08T15:24:58.240Z,97549.91
2024-02-08T15:27:33.288Z,97546.03
2024-02-08T15:30:12.497Z,97537.53
2024-02-08T15:33:18.084Z,97538.34
2024-02-08T15:36:01.078Z,97529.66
2024-02-08T15:38:33.878Z,97527.84
2024-02-08T15:41:10.707Z,97523.44
2024-02-08T15:43:42.495Z,97523.44
2024-02-08T15:46:21.632Z,97518.19
2024-02-08T15:48:55.501Z,97510.69
2024-02-08T15:51:38.291Z,97512.13
2024-02-08T15:54:23.101Z,97497.38
2024-02-08T15:56:54.950Z,97499.38
2024-02-08T15:59:28.947Z,97501.00
2024-02-08T16:02:07.165Z,97495.44
2024-02-08T16:04:44.696Z,97490.69
2024-02-08T16:07:17.701Z,97492.50
2024-02-08T16:09:51.464Z,97480.84
2024-02-08T16:12:24.317Z,97477.69
2024-02-08T16:15:06.414Z,97482.31
2024-02-08T16:17:40.507Z,97483.22
2024-02-08T16:20:12.835Z,97476.59
2024-02-08T16:22:56.670Z,97477.47
2024-02-08T16:25:48.936Z,97480.63
2024-02-08T16:28:25.049Z,97478.00
2024-02-08T16:31:11.886Z,97464.72
2024-02-08T16:33:54.430Z,97457.69
2024-02-08T16:36:30.822Z,97462.28
2024-02-08T16:39:22.826Z,97462.13
2024-02-08T16:42:01.494Z,97454.63
2024-02-08T16:44:52.185Z,97456.44
2024-02-08T16:47:29.419Z,97459.88
2024-02-08T16:50:18.102Z,97450.38
2024-02-08T16:52:59.414Z,97445.09
2024-02-08T16:55:48.095Z,97444.25
2024-02-08T16:58:30.332Z,97443.19
2024-02-08T17:01:06.561Z,97450.44
2024-02-08T17:03:51.028Z,97441.56
2024-02-08T17:06:52.355Z,97439.59
2024-02-08T17:09:35.202Z,97428.31
2024-02-08T17:12:19.229Z,97420.91
2024-02-08T17:14:55.198Z,97426.78
2024-02-08T17:17:37.107Z,97411.81
2024-02-08T17:20:26.820Z,97411.16
2024-02-08T17:23:06.790Z,97410.53
2024-02-08T17:25:56.881Z,97406.66
2024-02-08T17:28:51.090Z,97404.88
2024-02-08T17:31:34.910Z,97405.47
2024-02-08T17:34:11.169Z,97424.81
2024-02-08T17:36:47.074Z,97412.16
2024-02-08T17:39:37.352Z,97415.03
2024-02-08T17:42:10.255Z,97431.94
2024-02-08T17:44:50.618Z,97393.81
2024-02-08T17:47:29.837Z,97409.38
2024-02-08T17:50:06.031Z,97413.03
2024-02-08T17:52:39.168Z,97398.38
2024-02-08T17:55:16.438Z,97420.78
2024-02-08T17:57:57.189Z,97401.53
2024-02-08T18:00:29.338Z,97432.41
2024-02-08T18:03:02.156Z,97422.56
2024-02-08T18:05:37.317Z,97400.97
2024-02-08T18:08:11.538Z,97403.34
2024-02-08T18:10:45.277Z,97414.06
2024-02-08T18:13:18.384Z,97409.84
2024-02-08T18:15:59.052Z,97419.56
2024-02-08T18:18:33.916Z,97404.44
2024-02-08T18:21:10.786Z,97424.44
2024-02-08T18:23:47.084Z,97396.59
2024-02-08T18:26:28.969Z,97403.16
2024-02-08T18:29:05.359Z,97418.44
2024-02-08T18:31:38.891Z,97397.09
2024-02-08T18:34:11.228Z,97390.81
2024-02-08T18:36:47.605Z,97405.59
2024-02-08T18:39:28.962Z,97400.13
2024-02-08T18:42:03.282Z,97383.16
2024-02-08T18:44:36.810Z,97388.84
2024-02-08T18:47:15.228Z,97386.03
2024-02-08T18:49:50.761Z,97397.56
2024-02-08T18:52:25.557Z,97384.56
2024-02-08T18:55:00.637Z,97392.44
2024-02-08T18:57:35.549Z,97392.84
2024-02-08T19:00:14.779Z,97384.19
2024-02-08T19:02:46.900Z,97376.47
2024-02-08T19:05:18.765Z,97384.94
2024-02-08T19:07:52.503Z,97373.03
2024-02-08T19:10:26.081Z,97373.75
2024-02-08T19:13:00.722Z,97368.94
2024-02-08T19:15:35.809Z,97369.88
2024-02-08T19:18:16.057Z,97372.50
2024-02-08T19:20:49.909Z,97366.69
2024-02-08T19:23:25.661Z,97365.72
2024-02-08T19:25:59.079Z,97356.47
2024-02-08T19:28:37.968Z,97363.78
2024-02-08T19:31:10.990Z,97361.81
2024-02-08T19:33:48.579Z,97361.63
2024-02-08T19:36:24.318Z,97358.59
2024-02-08T19:38:57.790Z,97357.03
2024-02-08T19:41:30.083Z,97362.69
2024-02-08T19:44:02.706Z,97370.38
2024-02-08T19:46:39.921Z,97362.16
2024-02-08T19:49:17.215Z,97371.81
2024-02-08T19:51:49.756Z,97361.16
2024-02-08T19:54:21.498Z,97362.75
2024-02-08T19:56:54.746Z,97358.97
2024-02-08T19:59:29.046Z,97346.28
2024-02-08T20:02:06.694Z,97344.91
2024-02-08T20:04:42.247Z,97340.28
2024-02-08T20:07:14.129Z,97354.00
2024-02-08T20:09:47.564Z,97344.16
2024-02-08T20:12:20.198Z,97342.13
2024-02-08T20:14:57.903Z,97340.94
2024-02-08T20:17:29.740Z,97331.28
2024-02-08T20:20:02.448Z,97326.84
2024-02-08T20:22:34.322Z,97322.59
2024-02-08T20:25:06.733Z,97318.13
2024-02-08T20:27:38.907Z,97316.31
2024-02-08T20:30:22.400Z,97319.75
2024-02-08T20:32:54.751Z,97326.16
2024-02-08T20:35:35.972Z,97337.06
2024-02-08T20:38:07.696Z,97328.75
2024-02-08T20:40:42.074Z,97327.13
2024-02-08T20:43:18.867Z,97325.31
2024-02-08T20:45:50.961Z,97316.03
2024-02-08T20:48:23.361Z,97319.00
2024-02-08T20:50:56.825Z,97327.88
2024-02-08T20:53:31.596Z,97327.09
2024-02-08T20:56:04.981Z,97320.81
2024-02-08T20:58:39.564Z,97318.03
2024-02-08T21:01:11.821Z,97312.19
2024-02-08T21:03:44.382Z,97312.63
2024-02-08T21:06:16.108Z,97319.50
2024-02-08T21:08:47.818Z,97301.94
2024-02-08T21:11:19.589Z,97302.56
2024-02-08T21:13:55.575Z,97305.00
2024-02-08T21:16:30.885Z,97303.00
2024-02-08T21:19:10.135Z,97306.41
2024-02-08T21:21:41.992Z,97296.97
2024-02-08T21:24:13.865Z,97297.16
2024-02-08T21:26:52.650Z,97288.66
2024-02-08T21:29:27.260Z,97293.91
2024-02-08T21:32:00.888Z,97300.34
2024-02-08T21:34:35.923Z,97295.09
2024-02-08T21:37:08.301Z,97294.06
2024-02-08T21:39:46.680Z,97294.88
2024-02-08T21:42:21.021Z,97295.34
2024-02-08T21:44:53.760Z,97293.72
2024-02-08T21:47:27.854Z,97298.31
2024-02-08T21:50:07.972Z,97294.72
2024-02-08T21:52:40.040Z,97281.78
2024-02-08T21:55:11.775Z,97289.28
2024-02-08T21:57:43.491Z,97291.50
2024-02-08T22:00:19.953Z,97283.84
2024-02-08T22:02:51.751Z,97282.03
2024-02-08T22:05:24.084Z,97286.25
2024-02-08T22:07:58.768Z,97280.03
2024-02-08T22:10:31.792Z,97274.59
2024-02-08T22:13:09.119Z,97278.03
2024-02-08T22:15:41.151Z,97284.06
2024-02-08T22:18:13.989Z,97283.69
2024-02-08T22:20:46.197Z,97278.63
2024-02-08T22:23:17.896Z,97279.44
2024-02-08T22:25:49.715Z,97282.69
2024-02-08T22:28:21.511Z,97277.44
2024-02-08T22:30:55.665Z,97277.84
2024-02-08T22:33:27.414Z,97277.66
2024-02-08T22:35:59.138Z,97289.19
2024-02-08T22:38:30.838Z,97291.22
2024-02-08T22:41:03.434Z,97287.59
2024-02-08T22:43:39.920Z,97294.28
2024-02-08T22:46:11.844Z,97296.50
2024-02-08T22:48:43.648Z,97287.63
2024-02-08T22:51:18.184Z,97291.47
2024-02-08T22:53:50.810Z,97294.91
2024-02-08T22:56:22.533Z,97297.16
2024-02-08T22:58:54.270Z,97290.53
2024-02-08T23:01:35.541Z,97294.41
2024-02-08T23:04:16.142Z,97295.00
2024-02-08T23:06:48.688Z,97296.63
2024-02-08T23:09:20.661Z,97293.59
2024-02-08T23:11:53.524Z,97289.38
2024-02-08T23:14:31.079Z,97290.59
2024-02-08T23:17:04.567Z,97284.94
2024-02-08T23:19:36.334Z,97290.00
2024-02-08T23:22:08.938Z,97288.63
2024-02-08T23:24:42.361Z,97299.50
2024-02-08T23:27:14.200Z,97298.28
2024-02-08T23:29:45.918Z,97299.09
2024-02-08T23:32:18.793Z,97292.25
2024-02-08T23:34:53.731Z,97285.59
2024-02-08T23:37:25.524Z,97281.16
2024-02-08T23:39:57.296Z,97281.16
2024-02-08T23:42:34.025Z,97281.34
2024-02-08T23:45:06.217Z,97271.25
2024-02-08T23:47:39.265Z,97271.66
2024-02-08T23:50:13.613Z,97273.09
2024-02-08T23:52:45.431Z,97257.94
2024-02-08T23:55:20.501Z,97257.75
2024-02-08T23:57:53.256Z,97263.63
